createdAt,value
2019-01-17T00:02:25.694Z,5.63
2019-01-17T00:05:10.425Z,7.00
2019-01-17T00:08:01.751Z,6.93
2019-01-17T00:10:43.983Z,6.87
2019-01-17T00:13:27.293Z,6.73
2019-01-17T00:16:18.629Z,6.53
2019-01-17T00:19:04.386Z,6.70
2019-01-17T00:22:03.160Z,6.93
2019-01-17T00:25:06.494Z,7.40
2019-01-17T00:28:00.455Z,7.23
2019-01-17T00:30:57.739Z,5.17
2019-01-17T00:33:47.118Z,6.70
2019-01-17T00:36:33.381Z,6.90
2019-01-17T00:39:24.048Z,6.77
2019-01-17T00:42:18.777Z,6.03
2019-01-17T00:45:04.673Z,5.23
2019-01-17T00:47:54.429Z,5.87
2019-01-17T00:50:45.784Z,5.87
2019-01-17T00:53:25.309Z,6.17
2019-01-17T00:56:19.545Z,7.07
2019-01-17T00:59:00.492Z,6.97
2019-01-17T01:01:53.525Z,5.70
2019-01-17T01:04:48.733Z,6.43
2019-01-17T01:07:36.880Z,6.57
2019-01-17T01:10:27.129Z,5.90
2019-01-17T01:13:14.073Z,5.87
2019-01-17T01:16:13.601Z,6.47
2019-01-17T01:18:54.590Z,8.10
2019-01-17T01:21:51.821Z,6.57
2019-01-17T01:24:48.693Z,5.97
2019-01-17T01:27:40.425Z,6.43
2019-01-17T01:30:21.585Z,6.50
2019-01-17T01:33:05.321Z,6.50
2019-01-17T01:35:49.337Z,6.37
2019-01-17T01:38:43.106Z,6.30
2019-01-17T01:41:49.460Z,5.57
2019-01-17T01:44:39.078Z,6.30
2019-01-17T01:47:30.403Z,6.57
2019-01-17T01:50:27.960Z,6.27
2019-01-17T01:53:04.853Z,5.40
2019-01-17T01:55:36.484Z,4.93
2019-01-17T01:58:08.125Z,5.70
2019-01-17T02:00:39.764Z,5.97
2019-01-17T02:03:11.424Z,7.03
2019-01-17T02:05:43.061Z,5.27
2019-01-17T02:08:14.699Z,6.43
2019-01-17T02:10:46.525Z,6.50
2019-01-17T02:13:18.240Z,4.40
2019-01-17T02:15:49.973Z,5.90
2019-01-17T02:18:21.603Z,6.30
2019-01-17T02:20:53.228Z,4.93
2019-01-17T02:23:24.852Z,5.07
2019-01-17T02:25:56.602Z,5.70
2019-01-17T02:28:28.228Z,6.40
2019-01-17T02:30:59.861Z,5.93
2019-01-17T02:33:31.481Z,6.03
2019-01-17T02:36:03.335Z,6.80
2019-01-17T02:38:34.957Z,5.40
2019-01-17T02:41:06.592Z,6.10
2019-01-17T02:43:38.233Z,5.67
2019-01-17T02:46:09.981Z,5.77
2019-01-17T02:48:41.596Z,7.00
2019-01-17T02:51:13.331Z,5.30
2019-01-17T02:53:44.959Z,6.47
2019-01-17T02:56:16.604Z,6.40
2019-01-17T02:58:48.242Z,6.60
2019-01-17T03:01:19.873Z,5.60
2019-01-17T03:03:51.505Z,5.93
2019-01-17T03:06:23.357Z,5.07
2019-01-17T03:08:55.064Z,6.10
2019-01-17T03:11:26.826Z,5.63
2019-01-17T03:13:58.442Z,6.20
2019-01-17T03:16:30.085Z,5.63
2019-01-17T03:19:01.818Z,6.37
2019-01-17T03:21:33.463Z,5.50
2019-01-17T03:24:05.205Z,5.67
2019-01-17T03:26:36.846Z,6.73
2019-01-17T03:29:08.484Z,6.37
2019-01-17T03:31:40.118Z,6.07
2019-01-17T03:34:11.753Z,6.27
2019-01-17T03:36:43.381Z,6.37
2019-01-17T03:39:15.005Z,6.43
2019-01-17T03:41:46.734Z,6.50
2019-01-17T03:44:18.359Z,6.00
2019-01-17T03:46:50.029Z,5.77
2019-01-17T03:49:21.648Z,5.47
2019-01-17T03:51:53.293Z,6.23
2019-01-17T03:54:24.941Z,6.00
2019-01-17T03:56:56.655Z,6.30
2019-01-17T03:59:28.277Z,4.93
2019-01-17T04:01:59.915Z,6.67
2019-01-17T04:04:31.553Z,6.23
2019-01-17T04:07:03.391Z,6.83
2019-01-17T04:09:35.012Z,5.57
2019-01-17T04:12:06.643Z,6.30
2019-01-17T04:14:38.272Z,7.07
2019-01-17T04:17:09.906Z,7.07
2019-01-17T04:19:41.530Z,6.63
2019-01-17T04:22:13.166Z,6.37
2019-01-17T04:24:44.804Z,6.10
2019-01-17T04:27:16.433Z,5.77
2019-01-17T04:29:48.072Z,6.47
2019-01-17T04:32:19.698Z,6.20
2019-01-17T04:34:51.315Z,6.40
2019-01-17T04:37:23.050Z,5.37
2019-01-17T04:39:54.674Z,6.87
2019-01-17T04:42:26.313Z,5.13
2019-01-17T04:44:57.921Z,5.50
2019-01-17T04:47:29.663Z,5.90
2019-01-17T04:50:01.287Z,6.27
2019-01-17T04:52:32.929Z,6.20
2019-01-17T04:55:05.857Z,5.90
2019-01-17T04:57:37.508Z,4.60
2019-01-17T05:00:12.320Z,5.23
2019-01-17T05:02:43.964Z,5.20
2019-01-17T05:05:15.698Z,6.17
2019-01-17T05:07:47.422Z,5.43
2019-01-17T05:10:19.049Z,6.27
2019-01-17T05:12:50.689Z,5.47
2019-01-17T05:15:22.326Z,4.63
2019-01-17T05:17:53.997Z,4.83
2019-01-17T05:20:25.714Z,5.20
2019-01-17T05:22:57.358Z,4.73
2019-01-17T05:25:28.977Z,4.87
2019-01-17T05:28:00.631Z,5.07
2019-01-17T05:30:32.280Z,5.10
2019-01-17T05:33:04.025Z,4.40
2019-01-17T05:35:35.642Z,5.00
2019-01-17T05:38:07.272Z,4.97
2019-01-17T05:40:38.901Z,4.87
2019-01-17T05:43:10.710Z,5.20
2019-01-17T05:45:42.325Z,5.10
2019-01-17T05:48:13.970Z,4.57
2019-01-17T05:50:45.625Z,4.40
2019-01-17T05:53:17.269Z,4.50
2019-01-17T05:55:48.992Z,4.77
2019-01-17T05:58:20.641Z,3.70
2019-01-17T06:00:52.442Z,4.50
2019-01-17T06:03:24.082Z,5.23
2019-01-17T06:05:55.728Z,4.37
2019-01-17T06:08:27.382Z,3.77
2019-01-17T06:10:59.004Z,4.90
2019-01-17T06:13:30.733Z,4.33
2019-01-17T06:16:03.160Z,4.97
2019-01-17T06:18:34.805Z,4.50
2019-01-17T06:21:06.459Z,4.60
2019-01-17T06:23:38.388Z,4.93
2019-01-17T06:26:10.017Z,4.83
2019-01-17T06:28:41.650Z,4.67
2019-01-17T06:31:13.268Z,4.47
2019-01-17T06:33:44.979Z,5.23
2019-01-17T06:36:16.642Z,4.50
2019-01-17T06:38:48.292Z,4.80
2019-01-17T06:41:19.925Z,4.13
2019-01-17T06:43:51.570Z,4.47
2019-01-17T06:46:23.200Z,4.27
2019-01-17T06:48:54.858Z,4.03
2019-01-17T06:51:26.562Z,4.97
2019-01-17T06:53:58.214Z,3.87
2019-01-17T06:56:29.837Z,4.37
2019-01-17T06:59:01.464Z,4.40
2019-01-17T07:01:33.109Z,4.10
2019-01-17T07:04:04.858Z,5.20
2019-01-17T07:06:36.505Z,3.97
2019-01-17T07:09:08.155Z,4.47
2019-01-17T07:11:39.790Z,3.87
2019-01-17T07:14:11.437Z,3.90
2019-01-17T07:16:43.051Z,4.93
2019-01-17T07:19:14.680Z,4.10
2019-01-17T07:21:46.317Z,3.73
2019-01-17T07:24:17.936Z,4.47
2019-01-17T07:26:49.636Z,4.10
2019-01-17T07:29:21.286Z,4.23
2019-01-17T07:31:52.908Z,3.80
2019-01-17T07:34:24.565Z,3.47
2019-01-17T07:36:56.192Z,4.00
2019-01-17T07:39:27.816Z,3.70
2019-01-17T07:41:59.437Z,3.80
2019-01-17T07:44:31.074Z,3.40
2019-01-17T07:47:02.805Z,4.20
2019-01-17T07:49:34.446Z,3.47
2019-01-17T07:52:06.268Z,3.90
2019-01-17T07:54:37.911Z,3.33
2019-01-17T07:57:09.554Z,3.33
2019-01-17T07:59:41.181Z,3.50
2019-01-17T08:02:12.817Z,4.00
2019-01-17T08:04:44.432Z,3.70
2019-01-17T08:07:16.073Z,3.90
2019-01-17T08:09:47.706Z,4.17
2019-01-17T08:12:19.338Z,3.80
2019-01-17T08:14:50.965Z,3.70
2019-01-17T08:17:22.596Z,3.60
2019-01-17T08:19:54.217Z,3.47
2019-01-17T08:22:25.849Z,2.83
2019-01-17T08:24:57.481Z,3.27
2019-01-17T08:27:29.104Z,3.60
2019-01-17T08:30:00.739Z,3.80
2019-01-17T08:32:32.348Z,3.10
2019-01-17T08:35:04.465Z,3.30
2019-01-17T08:37:36.070Z,3.27
2019-01-17T08:40:20.120Z,3.30
2019-01-17T08:42:47.952Z,3.53
2019-01-17T08:45:19.589Z,3.67
2019-01-17T08:47:51.200Z,2.83
2019-01-17T08:50:23.056Z,3.00
2019-01-17T08:52:54.680Z,3.33
2019-01-17T08:55:26.416Z,2.87
2019-01-17T08:57:58.045Z,3.37
2019-01-17T09:00:29.676Z,3.00
2019-01-17T09:03:01.310Z,3.17
2019-01-17T09:05:32.957Z,2.87
2019-01-17T09:08:04.772Z,3.17
2019-01-17T09:10:36.775Z,3.13
2019-01-17T09:13:08.518Z,2.93
2019-01-17T09:15:40.153Z,2.70
2019-01-17T09:18:11.773Z,3.00
2019-01-17T09:20:43.407Z,3.30
2019-01-17T09:23:15.033Z,3.67
2019-01-17T09:25:46.680Z,3.20
2019-01-17T09:28:18.293Z,3.23
2019-01-17T09:30:49.924Z,2.80
2019-01-17T09:33:21.644Z,2.97
2019-01-17T09:35:53.279Z,2.63
2019-01-17T09:38:24.990Z,2.63
2019-01-17T09:40:56.723Z,2.80
2019-01-17T09:43:28.342Z,2.73
2019-01-17T09:45:59.968Z,3.03
2019-01-17T09:48:31.669Z,2.23
2019-01-17T09:51:03.408Z,2.63
2019-01-17T09:53:35.049Z,2.37
2019-01-17T09:56:08.063Z,2.20
2019-01-17T09:58:39.818Z,2.20
2019-01-17T10:01:11.552Z,2.40
2019-01-17T10:03:43.177Z,2.40
2019-01-17T10:06:15.006Z,2.37
2019-01-17T10:08:46.726Z,2.30
2019-01-17T10:11:18.353Z,2.43
2019-01-17T10:13:50.068Z,2.70
2019-01-17T10:16:30.644Z,2.53
2019-01-17T10:19:42.517Z,2.33
2019-01-17T10:22:32.568Z,2.17
2019-01-17T10:25:44.069Z,1.90
2019-01-17T10:28:33.700Z,2.20
2019-01-17T10:31:40.024Z,2.57
2019-01-17T10:35:00.949Z,3.10
2019-01-17T10:38:01.192Z,2.00
2019-01-17T10:40:57.755Z,1.83
2019-01-17T10:44:22.437Z,2.30
2019-01-17T10:47:32.081Z,2.40
2019-01-17T10:50:22.345Z,2.00
2019-01-17T10:53:20.249Z,2.00
2019-01-17T10:56:31.171Z,2.00
2019-01-17T10:59:17.631Z,2.93
2019-01-17T11:02:03.545Z,1.93
2019-01-17T11:05:11.600Z,2.33
2019-01-17T11:07:59.961Z,1.53
2019-01-17T11:10:53.941Z,1.90
2019-01-17T11:13:34.492Z,2.03
2019-01-17T11:16:29.910Z,2.50
2019-01-17T11:19:17.013Z,1.97
2019-01-17T11:22:29.130Z,1.80
2019-01-17T11:25:19.215Z,2.47
2019-01-17T11:28:23.209Z,2.13
2019-01-17T11:31:27.001Z,2.30
2019-01-17T11:34:22.657Z,2.43
2019-01-17T11:37:28.080Z,1.80
2019-01-17T11:40:29.659Z,2.43
2019-01-17T11:43:26.315Z,2.20
2019-01-17T11:46:37.339Z,2.40
2019-01-17T11:50:03.157Z,2.33
2019-01-17T11:53:09.895Z,2.10
2019-01-17T11:56:09.636Z,2.73
2019-01-17T11:59:04.296Z,1.87
2019-01-17T12:02:05.015Z,1.60
2019-01-17T12:04:36.863Z,1.60
2019-01-17T12:07:14.603Z,2.17
2019-01-17T12:09:46.238Z,1.93
2019-01-17T12:12:21.655Z,1.77
2019-01-17T12:14:56.988Z,1.83
2019-01-17T12:17:28.609Z,2.00
2019-01-17T12:20:00.239Z,1.20
2019-01-17T12:22:31.856Z,2.13
2019-01-17T12:25:04.316Z,1.37
2019-01-17T12:27:42.361Z,1.57
2019-01-17T12:30:12.148Z,2.03
2019-01-17T12:32:43.774Z,1.70
2019-01-17T12:35:15.408Z,2.40
2019-01-17T12:37:47.036Z,2.17
2019-01-17T12:40:18.657Z,3.17
2019-01-17T12:42:50.292Z,2.33
2019-01-17T12:45:21.933Z,1.67
2019-01-17T12:47:53.552Z,3.10
2019-01-17T12:50:25.188Z,1.60
2019-01-17T12:52:56.839Z,2.33
2019-01-17T12:55:28.584Z,2.87
2019-01-17T12:58:00.210Z,2.67
2019-01-17T13:00:31.852Z,2.20
2019-01-17T13:03:03.656Z,1.63
2019-01-17T13:05:35.289Z,2.70
2019-01-17T13:08:07.034Z,1.80
2019-01-17T13:10:38.776Z,1.73
2019-01-17T13:13:10.413Z,2.20
2019-01-17T13:15:42.056Z,3.07
2019-01-17T13:18:13.678Z,1.60
2019-01-17T13:20:45.517Z,1.50
2019-01-17T13:23:17.228Z,1.73
2019-01-17T13:25:48.965Z,2.23
2019-01-17T13:28:20.595Z,1.83
2019-01-17T13:30:52.228Z,1.77
2019-01-17T13:33:23.958Z,1.87
2019-01-17T13:35:55.594Z,1.70
2019-01-17T13:38:27.218Z,2.03
2019-01-17T13:40:58.845Z,1.80
2019-01-17T13:43:30.470Z,2.17
2019-01-17T13:46:02.109Z,1.80
2019-01-17T13:48:33.737Z,1.90
2019-01-17T13:51:05.386Z,1.67
2019-01-17T13:53:37.008Z,1.80
2019-01-17T13:56:08.738Z,2.10
2019-01-17T13:58:40.352Z,1.63
2019-01-17T14:01:11.990Z,2.30
2019-01-17T14:03:43.633Z,1.50
2019-01-17T14:06:15.371Z,1.67
2019-01-17T14:08:47.003Z,1.93
2019-01-17T14:11:18.624Z,2.10
2019-01-17T14:13:50.247Z,1.90
2019-01-17T14:16:21.988Z,1.70
2019-01-17T14:18:53.608Z,1.77
2019-01-17T14:21:25.639Z,1.80
2019-01-17T14:23:57.472Z,2.07
2019-01-17T14:26:29.111Z,1.93
2019-01-17T14:29:00.738Z,1.80
2019-01-17T14:31:32.358Z,2.00
2019-01-17T14:34:03.981Z,1.83
2019-01-17T14:36:35.612Z,1.53
2019-01-17T14:39:07.632Z,1.90
2019-01-17T14:41:39.257Z,1.67
2019-01-17T14:44:10.878Z,1.87
2019-01-17T14:46:42.502Z,1.73
2019-01-17T14:49:14.151Z,1.40
2019-01-17T14:51:45.880Z,2.07
2019-01-17T14:54:17.504Z,2.13
2019-01-17T14:56:49.261Z,1.83
2019-01-17T14:59:20.887Z,2.10
2019-01-17T15:01:52.525Z,2.33
2019-01-17T15:04:24.176Z,2.13
2019-01-17T15:06:55.832Z,2.10
2019-01-17T15:09:27.485Z,1.93
2019-01-17T15:11:59.106Z,1.97
2019-01-17T15:14:30.745Z,1.80
2019-01-17T15:17:02.773Z,1.90
2019-01-17T15:19:34.409Z,2.53
2019-01-17T15:22:06.144Z,2.40
2019-01-17T15:24:37.773Z,2.23
2019-01-17T15:27:10.204Z,2.27
2019-01-17T15:29:41.849Z,2.17
2019-01-17T15:32:13.491Z,2.80
2019-01-17T15:34:45.128Z,2.60
2019-01-17T15:37:16.758Z,2.90
2019-01-17T15:39:48.376Z,2.77
2019-01-17T15:42:20.013Z,2.53
2019-01-17T15:44:51.626Z,2.83
2019-01-17T15:47:23.269Z,2.37
2019-01-17T15:49:54.897Z,3.23
2019-01-17T15:52:26.560Z,2.20
2019-01-17T15:54:58.189Z,2.70
2019-01-17T15:57:33.890Z,2.47
2019-01-17T16:00:05.230Z,5.73
2019-01-17T16:02:36.861Z,4.13
2019-01-17T16:05:08.481Z,5.17
2019-01-17T16:07:40.125Z,4.30
2019-01-17T16:10:12.310Z,4.03
2019-01-17T16:12:43.989Z,3.17
2019-01-17T16:15:17.705Z,3.47
2019-01-17T16:17:49.336Z,2.90
2019-01-17T16:20:21.065Z,2.73
2019-01-17T16:22:52.698Z,3.30
2019-01-17T16:25:24.417Z,3.00
2019-01-17T16:27:56.054Z,2.80
2019-01-17T16:30:29.566Z,2.73
2019-01-17T16:33:01.309Z,2.90
2019-01-17T16:35:32.940Z,2.57
2019-01-17T16:38:04.572Z,3.27
2019-01-17T16:40:36.202Z,3.20
2019-01-17T16:43:07.846Z,3.33
2019-01-17T16:45:39.481Z,3.13
2019-01-17T16:48:11.120Z,2.20
2019-01-17T16:50:42.756Z,2.37
2019-01-17T16:53:14.397Z,2.50
2019-01-17T16:55:46.026Z,3.00
2019-01-17T16:58:17.656Z,2.83
2019-01-17T17:00:49.294Z,3.13
2019-01-17T17:03:20.928Z,2.90
2019-01-17T17:05:52.654Z,2.47
2019-01-17T17:08:24.313Z,3.03
2019-01-17T17:10:56.024Z,3.47
2019-01-17T17:13:27.673Z,3.60
2019-01-17T17:15:59.570Z,4.33
2019-01-17T17:18:31.225Z,3.20
2019-01-17T17:21:02.965Z,2.83
2019-01-17T17:23:34.616Z,3.13
2019-01-17T17:26:06.253Z,3.03
2019-01-17T17:28:37.882Z,4.37
2019-01-17T17:31:09.508Z,3.80
2019-01-17T17:33:41.147Z,3.70
2019-01-17T17:36:12.763Z,4.07
2019-01-17T17:38:44.400Z,4.00
2019-01-17T17:41:16.037Z,4.30
2019-01-17T17:43:47.678Z,4.60
2019-01-17T17:46:19.316Z,3.43
2019-01-17T17:48:50.957Z,3.20
2019-01-17T17:51:22.590Z,3.17
2019-01-17T17:53:54.224Z,5.30
2019-01-17T17:56:25.850Z,5.13
2019-01-17T17:58:57.610Z,3.87
2019-01-17T18:01:37.810Z,3.93
2019-01-17T18:04:09.461Z,4.43
2019-01-17T18:06:41.220Z,4.40
2019-01-17T18:09:12.861Z,4.00
2019-01-17T18:11:44.493Z,4.40
2019-01-17T18:14:16.132Z,5.87
2019-01-17T18:16:47.777Z,4.77
2019-01-17T18:19:19.501Z,5.03
2019-01-17T18:21:51.138Z,8.63
2019-01-17T18:24:23.056Z,5.40
2019-01-17T18:26:54.693Z,6.53
2019-01-17T18:29:26.338Z,7.47
2019-01-17T18:31:57.966Z,8.73
2019-01-17T18:34:29.618Z,5.87
2019-01-17T18:37:01.245Z,5.30
2019-01-17T18:39:32.985Z,6.20
2019-01-17T18:42:04.624Z,4.33
2019-01-17T18:44:36.273Z,4.80
2019-01-17T18:47:08.006Z,6.73
2019-01-17T18:49:39.761Z,6.50
2019-01-17T18:52:11.699Z,5.87
2019-01-17T18:54:43.365Z,5.23
2019-01-17T18:57:15.026Z,7.27
2019-01-17T18:59:46.660Z,5.27
2019-01-17T19:02:18.300Z,7.17
2019-01-17T19:04:49.953Z,6.63
2019-01-17T19:07:21.580Z,7.10
2019-01-17T19:09:53.225Z,7.20
2019-01-17T19:12:24.845Z,6.73
2019-01-17T19:14:56.480Z,7.60
2019-01-17T19:17:28.109Z,7.33
2019-01-17T19:19:59.845Z,7.60
2019-01-17T19:22:31.457Z,8.00
2019-01-17T19:25:03.802Z,7.63
2019-01-17T19:27:35.440Z,8.37
2019-01-17T19:30:10.746Z,7.57
2019-01-17T19:32:42.399Z,9.10
2019-01-17T19:35:14.229Z,8.03
2019-01-17T19:37:45.889Z,9.10
2019-01-17T19:40:19.268Z,9.17
2019-01-17T19:42:51.109Z,8.43
2019-01-17T19:45:22.836Z,9.60
2019-01-17T19:47:54.593Z,9.20
2019-01-17T19:50:31.427Z,9.23
2019-01-17T19:53:04.063Z,10.10
2019-01-17T19:55:35.923Z,11.03
2019-01-17T19:58:07.567Z,10.50
2019-01-17T20:00:39.216Z,10.57
2019-01-17T20:03:10.860Z,11.27
2019-01-17T20:05:42.617Z,8.77
2019-01-17T20:08:14.456Z,9.23
2019-01-17T20:10:46.342Z,8.37
2019-01-17T20:13:18.029Z,8.13
2019-01-17T20:15:49.697Z,6.23
2019-01-17T20:18:21.341Z,7.30
2019-01-17T20:20:53.108Z,6.73
2019-01-17T20:23:24.768Z,8.30
2019-01-17T20:25:56.437Z,7.07
2019-01-17T20:28:28.076Z,7.47
2019-01-17T20:30:59.822Z,6.57
2019-01-17T20:33:31.559Z,6.50
2019-01-17T20:36:03.412Z,7.43
2019-01-17T20:38:35.053Z,8.43
2019-01-17T20:41:06.807Z,8.13
2019-01-17T20:43:38.427Z,9.00
2019-01-17T20:46:10.078Z,9.53
2019-01-17T20:48:41.732Z,9.07
2019-01-17T20:51:13.360Z,9.73
2019-01-17T20:53:45.027Z,8.90
2019-01-17T20:56:16.677Z,9.60
2019-01-17T20:58:48.361Z,8.00
2019-01-17T21:02:08.749Z,8.20
2019-01-17T21:04:40.428Z,8.23
2019-01-17T21:07:13.057Z,8.70
2019-01-17T21:09:44.827Z,7.50
2019-01-17T21:12:21.341Z,8.20
2019-01-17T21:14:53.017Z,8.27
2019-01-17T21:17:24.675Z,7.97
2019-01-17T21:19:56.305Z,7.90
2019-01-17T21:22:27.969Z,7.83
2019-01-17T21:24:59.649Z,8.07
2019-01-17T21:27:31.278Z,7.73
2019-01-17T21:30:10.998Z,8.67
2019-01-17T21:32:42.624Z,7.60
2019-01-17T21:35:14.257Z,7.60
2019-01-17T21:37:46.004Z,5.63
2019-01-17T21:40:18.328Z,6.23
2019-01-17T21:42:50.049Z,5.73
2019-01-17T21:45:21.688Z,6.47
2019-01-17T21:47:59.881Z,6.10
2019-01-17T21:50:36.475Z,6.00
2019-01-17T21:53:08.193Z,6.10
2019-01-17T21:55:39.880Z,6.67
2019-01-17T21:58:11.546Z,5.17
2019-01-17T22:00:43.494Z,6.67
2019-01-17T22:03:15.421Z,5.77
2019-01-17T22:05:47.106Z,5.70
2019-01-17T22:08:18.748Z,5.90
2019-01-17T22:10:50.377Z,4.37
2019-01-17T22:13:22.112Z,5.17
2019-01-17T22:15:53.748Z,5.13
2019-01-17T22:18:25.784Z,4.60
2019-01-17T22:20:57.388Z,4.77
2019-01-17T22:23:29.045Z,4.97
2019-01-17T22:26:00.685Z,4.80
2019-01-17T22:28:32.324Z,4.37
2019-01-17T22:31:03.948Z,4.33
2019-01-17T22:33:35.575Z,5.80
2019-01-17T22:36:11.229Z,5.90
2019-01-17T22:38:43.128Z,4.50
2019-01-17T22:41:15.583Z,5.83
2019-01-17T22:43:47.294Z,6.17
2019-01-17T22:46:23.630Z,5.93
2019-01-17T22:49:00.396Z,7.77
2019-01-17T22:51:35.184Z,5.90
2019-01-17T22:54:06.893Z,6.20
2019-01-17T22:56:39.210Z,6.77
2019-01-17T22:59:10.820Z,5.80
2019-01-17T23:01:42.441Z,5.83
2019-01-17T23:04:14.082Z,5.27
2019-01-17T23:06:45.705Z,5.93
2019-01-17T23:09:18.581Z,5.20
2019-01-17T23:11:50.219Z,5.93
2019-01-17T23:14:21.880Z,6.00
2019-01-17T23:16:53.499Z,6.90
2019-01-17T23:19:25.125Z,7.43
2019-01-17T23:21:56.861Z,6.80
2019-01-17T23:24:28.503Z,6.60
2019-01-17T23:27:00.133Z,7.70
2019-01-17T23:29:31.778Z,5.97
2019-01-17T23:32:03.412Z,6.03
2019-01-17T23:34:35.041Z,6.43
2019-01-17T23:37:06.668Z,6.70
2019-01-17T23:39:38.289Z,4.87
2019-01-17T23:42:10.013Z,5.30
2019-01-17T23:44:41.658Z,5.33
2019-01-17T23:47:13.277Z,5.70
2019-01-17T23:49:44.937Z,5.20
2019-01-17T23:52:16.546Z,4.90
2019-01-17T23:54:48.185Z,4.70
2019-01-17T23:57:19.811Z,4.83
2019-01-17T23:59:51.437Z,4.70
